sensor_id;sensor_type;location;lat;lon;timestamp;temperature;humidity
6114;DHT22;3087;48.392;10.836;2023-05-07T00:02:12;14.40;99.90
6114;DHT22;3087;48.392;10.836;2023-05-07T00:04:37;14.40;99.90
6114;DHT22;3087;48.392;10.836;2023-05-07T00:07:04;14.40;99.90
6114;DHT22;3087;48.392;10.836;2023-05-07T00:09:30;14.40;99.90
6114;DHT22;3087;48.392;10.836;2023-05-07T00:11:55;14.40;99.90
6114;DHT22;3087;48.392;10.836;2023-05-07T00:14:21;14.30;99.90
6114;DHT22;3087;48.392;10.836;2023-05-07T00:16:46;14.50;99.90
6114;DHT22;3087;48.392;10.836;2023-05-07T00:19:14;14.40;99.90
6114;DHT22;3087;48.392;10.836;2023-05-07T00:21:40;14.40;99.90
6114;DHT22;3087;48.392;10.836;2023-05-07T00:24:05;14.40;99.90
6114;DHT22;3087;48.392;10.836;2023-05-07T00:26:31;14.30;99.90
6114;DHT22;3087;48.392;10.836;2023-05-07T00:28:57;14.20;99.90
6114;DHT22;3087;48.392;10.836;2023-05-07T00:31:22;14.20;99.90
6114;DHT22;3087;48.392;10.836;2023-05-07T00:33:48;14.30;99.90
6114;DHT22;3087;48.392;10.836;2023-05-07T00:36:13;14.50;99.90
6114;DHT22;3087;48.392;10.836;2023-05-07T00:38:39;14.20;99.90
6114;DHT22;3087;48.392;10.836;2023-05-07T00:41:05;14.20;99.90
6114;DHT22;3087;48.392;10.836;2023-05-07T00:43:30;14.40;99.90
6114;DHT22;3087;48.392;10.836;2023-05-07T00:45:57;14.30;99.90
6114;DHT22;3087;48.392;10.836;2023-05-07T00:48:22;14.20;99.90
6114;DHT22;3087;48.392;10.836;2023-05-07T00:50:49;14.20;99.90
6114;DHT22;3087;48.392;10.836;2023-05-07T00:53:15;14.20;99.90
6114;DHT22;3087;48.392;10.836;2023-05-07T00:55:41;14.20;99.90
6114;DHT22;3087;48.392;10.836;2023-05-07T00:58:07;14.10;99.90
6114;DHT22;3087;48.392;10.836;2023-05-07T01:00:33;14.00;99.90
6114;DHT22;3087;48.392;10.836;2023-05-07T01:02:59;14.00;99.90
6114;DHT22;3087;48.392;10.836;2023-05-07T01:05:26;14.00;99.90
6114;DHT22;3087;48.392;10.836;2023-05-07T01:07:53;14.20;99.90
6114;DHT22;3087;48.392;10.836;2023-05-07T01:10:20;14.00;99.90
6114;DHT22;3087;48.392;10.836;2023-05-07T01:12:47;14.20;99.90
6114;DHT22;3087;48.392;10.836;2023-05-07T01:15:14;14.00;99.90
6114;DHT22;3087;48.392;10.836;2023-05-07T01:17:40;14.10;99.90
6114;DHT22;3087;48.392;10.836;2023-05-07T01:20:07;14.00;99.90
6114;DHT22;3087;48.392;10.836;2023-05-07T01:22:34;14.00;99.90
6114;DHT22;3087;48.392;10.836;2023-05-07T01:25:02;14.10;99.90
6114;DHT22;3087;48.392;10.836;2023-05-07T01:27:28;14.00;99.90
6114;DHT22;3087;48.392;10.836;2023-05-07T01:29:54;14.00;99.90
6114;DHT22;3087;48.392;10.836;2023-05-07T01:32:27;14.10;99.90
6114;DHT22;3087;48.392;10.836;2023-05-07T01:34:54;14.00;99.90
6114;DHT22;3087;48.392;10.836;2023-05-07T01:37:21;13.90;99.90
6114;DHT22;3087;48.392;10.836;2023-05-07T01:39:48;13.90;99.90
6114;DHT22;3087;48.392;10.836;2023-05-07T01:42:13;13.80;99.90
6114;DHT22;3087;48.392;10.836;2023-05-07T01:44:39;14.20;99.90
6114;DHT22;3087;48.392;10.836;2023-05-07T01:47:05;13.90;99.90
6114;DHT22;3087;48.392;10.836;2023-05-07T01:49:31;13.90;99.90
6114;DHT22;3087;48.392;10.836;2023-05-07T01:51:58;13.90;99.90
6114;DHT22;3087;48.392;10.836;2023-05-07T01:54:27;13.90;99.90
6114;DHT22;3087;48.392;10.836;2023-05-07T01:56:55;13.80;99.90
6114;DHT22;3087;48.392;10.836;2023-05-07T01:59:20;13.80;99.90
6114;DHT22;3087;48.392;10.836;2023-05-07T02:01:46;13.60;99.90
6114;DHT22;3087;48.392;10.836;2023-05-07T02:04:12;13.60;99.90
6114;DHT22;3087;48.392;10.836;2023-05-07T02:06:38;13.60;99.90
6114;DHT22;3087;48.392;10.836;2023-05-07T02:09:04;13.60;99.90
6114;DHT22;3087;48.392;10.836;2023-05-07T02:11:29;13.60;99.90
6114;DHT22;3087;48.392;10.836;2023-05-07T02:13:55;13.40;99.90
6114;DHT22;3087;48.392;10.836;2023-05-07T02:16:21;13.50;99.90
6114;DHT22;3087;48.392;10.836;2023-05-07T02:18:47;13.30;99.90
6114;DHT22;3087;48.392;10.836;2023-05-07T02:21:13;13.30;99.90
6114;DHT22;3087;48.392;10.836;2023-05-07T02:23:38;13.50;99.90
6114;DHT22;3087;48.392;10.836;2023-05-07T02:26:04;13.40;99.90
6114;DHT22;3087;48.392;10.836;2023-05-07T02:28:33;13.40;99.90
6114;DHT22;3087;48.392;10.836;2023-05-07T02:31:03;13.40;99.90
6114;DHT22;3087;48.392;10.836;2023-05-07T02:33:28;13.70;99.90
6114;DHT22;3087;48.392;10.836;2023-05-07T02:35:54;14.10;99.90
6114;DHT22;3087;48.392;10.836;2023-05-07T02:38:19;13.20;99.90
6114;DHT22;3087;48.392;10.836;2023-05-07T02:40:45;13.70;99.90
6114;DHT22;3087;48.392;10.836;2023-05-07T02:43:10;13.60;99.90
6114;DHT22;3087;48.392;10.836;2023-05-07T02:45:36;13.40;99.90
6114;DHT22;3087;48.392;10.836;2023-05-07T02:48:03;13.40;99.90
6114;DHT22;3087;48.392;10.836;2023-05-07T02:50:29;13.30;99.90
6114;DHT22;3087;48.392;10.836;2023-05-07T02:52:55;13.30;99.90
6114;DHT22;3087;48.392;10.836;2023-05-07T02:55:20;13.40;99.90
6114;DHT22;3087;48.392;10.836;2023-05-07T02:57:46;13.40;99.90
6114;DHT22;3087;48.392;10.836;2023-05-07T03:00:13;13.30;99.90
6114;DHT22;3087;48.392;10.836;2023-05-07T03:02:39;13.30;99.90
6114;DHT22;3087;48.392;10.836;2023-05-07T03:05:05;13.30;99.90
6114;DHT22;3087;48.392;10.836;2023-05-07T03:07:31;13.30;99.90
6114;DHT22;3087;48.392;10.836;2023-05-07T03:09:56;13.20;99.90
6114;DHT22;3087;48.392;10.836;2023-05-07T03:12:22;13.30;99.90
6114;DHT22;3087;48.392;10.836;2023-05-07T03:14:47;13.20;99.90
6114;DHT22;3087;48.392;10.836;2023-05-07T03:17:14;13.20;99.90
6114;DHT22;3087;48.392;10.836;2023-05-07T03:19:41;13.20;99.90
6114;DHT22;3087;48.392;10.836;2023-05-07T03:22:07;13.40;99.90
6114;DHT22;3087;48.392;10.836;2023-05-07T03:24:32;13.20;99.90
6114;DHT22;3087;48.392;10.836;2023-05-07T03:26:58;13.20;99.90
6114;DHT22;3087;48.392;10.836;2023-05-07T03:29:23;13.20;99.90
6114;DHT22;3087;48.392;10.836;2023-05-07T03:31:49;13.20;99.90
6114;DHT22;3087;48.392;10.836;2023-05-07T03:34:15;13.50;99.90
6114;DHT22;3087;48.392;10.836;2023-05-07T03:36:42;13.40;99.90
6114;DHT22;3087;48.392;10.836;2023-05-07T03:39:09;13.20;99.90
6114;DHT22;3087;48.392;10.836;2023-05-07T03:41:34;13.20;99.90
6114;DHT22;3087;48.392;10.836;2023-05-07T03:44:00;13.20;99.90
6114;DHT22;3087;48.392;10.836;2023-05-07T03:46:26;13.10;99.90
6114;DHT22;3087;48.392;10.836;2023-05-07T03:48:53;13.10;99.90
6114;DHT22;3087;48.392;10.836;2023-05-07T03:51:18;13.10;99.90
6114;DHT22;3087;48.392;10.836;2023-05-07T03:53:44;13.10;99.90
6114;DHT22;3087;48.392;10.836;2023-05-07T03:56:10;13.20;99.90
6114;DHT22;3087;48.392;10.836;2023-05-07T03:58:36;13.10;99.90
6114;DHT22;3087;48.392;10.836;2023-05-07T04:01:01;13.10;99.90
6114;DHT22;3087;48.392;10.836;2023-05-07T04:03:27;13.00;99.90
6114;DHT22;3087;48.392;10.836;2023-05-07T04:05:52;13.00;99.90
6114;DHT22;3087;48.392;10.836;2023-05-07T04:08:18;13.10;99.90
6114;DHT22;3087;48.392;10.836;2023-05-07T04:10:44;13.00;99.90
6114;DHT22;3087;48.392;10.836;2023-05-07T04:13:09;13.10;99.90
6114;DHT22;3087;48.392;10.836;2023-05-07T04:15:35;13.10;99.90
6114;DHT22;3087;48.392;10.836;2023-05-07T04:18:01;13.00;99.90
6114;DHT22;3087;48.392;10.836;2023-05-07T04:20:27;13.00;99.90
6114;DHT22;3087;48.392;10.836;2023-05-07T04:22:53;13.10;99.90
6114;DHT22;3087;48.392;10.836;2023-05-07T04:25:18;13.20;99.90
6114;DHT22;3087;48.392;10.836;2023-05-07T04:27:44;13.00;99.90
6114;DHT22;3087;48.392;10.836;2023-05-07T04:30:10;13.10;99.90
6114;DHT22;3087;48.392;10.836;2023-05-07T04:32:36;13.10;99.90
6114;DHT22;3087;48.392;10.836;2023-05-07T04:35:03;13.10;99.90
6114;DHT22;3087;48.392;10.836;2023-05-07T04:37:28;13.10;99.90
6114;DHT22;3087;48.392;10.836;2023-05-07T04:39:54;13.20;99.90
6114;DHT22;3087;48.392;10.836;2023-05-07T04:42:19;13.30;99.90
6114;DHT22;3087;48.392;10.836;2023-05-07T04:44:45;13.20;99.90
6114;DHT22;3087;48.392;10.836;2023-05-07T04:47:11;13.30;99.90
6114;DHT22;3087;48.392;10.836;2023-05-07T04:49:38;13.40;99.90
6114;DHT22;3087;48.392;10.836;2023-05-07T04:52:04;13.50;99.90
6114;DHT22;3087;48.392;10.836;2023-05-07T04:54:30;13.60;99.90
6114;DHT22;3087;48.392;10.836;2023-05-07T04:56:56;13.70;99.90
6114;DHT22;3087;48.392;10.836;2023-05-07T04:59:21;13.60;99.90
6114;DHT22;3087;48.392;10.836;2023-05-07T05:01:47;13.70;99.90
6114;DHT22;3087;48.392;10.836;2023-05-07T05:04:13;13.70;99.90
6114;DHT22;3087;48.392;10.836;2023-05-07T05:06:39;13.70;99.90
6114;DHT22;3087;48.392;10.836;2023-05-07T05:09:04;14.10;99.90
6114;DHT22;3087;48.392;10.836;2023-05-07T05:11:31;13.80;99.90
6114;DHT22;3087;48.392;10.836;2023-05-07T05:13:59;13.90;99.90
6114;DHT22;3087;48.392;10.836;2023-05-07T05:16:26;13.90;99.90
6114;DHT22;3087;48.392;10.836;2023-05-07T05:18:51;14.00;99.90
6114;DHT22;3087;48.392;10.836;2023-05-07T05:21:17;14.00;99.90
6114;DHT22;3087;48.392;10.836;2023-05-07T05:23:43;14.10;99.90
6114;DHT22;3087;48.392;10.836;2023-05-07T05:26:09;14.40;99.90
6114;DHT22;3087;48.392;10.836;2023-05-07T05:28:34;14.10;99.90
6114;DHT22;3087;48.392;10.836;2023-05-07T05:31:00;14.20;99.90
6114;DHT22;3087;48.392;10.836;2023-05-07T05:33:26;14.20;99.90
6114;DHT22;3087;48.392;10.836;2023-05-07T05:35:53;14.30;99.90
6114;DHT22;3087;48.392;10.836;2023-05-07T05:38:19;14.50;99.90
6114;DHT22;3087;48.392;10.836;2023-05-07T05:40:46;14.60;99.90
6114;DHT22;3087;48.392;10.836;2023-05-07T05:43:12;14.70;99.90
6114;DHT22;3087;48.392;10.836;2023-05-07T05:45:37;15.00;99.90
6114;DHT22;3087;48.392;10.836;2023-05-07T05:48:04;15.00;99.90
6114;DHT22;3087;48.392;10.836;2023-05-07T05:50:30;15.10;99.90
6114;DHT22;3087;48.392;10.836;2023-05-07T05:52:55;15.00;99.90
6114;DHT22;3087;48.392;10.836;2023-05-07T05:55:21;15.20;99.90
6114;DHT22;3087;48.392;10.836;2023-05-07T05:57:47;15.10;99.90
6114;DHT22;3087;48.392;10.836;2023-05-07T06:00:13;15.30;99.90
6114;DHT22;3087;48.392;10.836;2023-05-07T06:02:39;15.40;99.90
6114;DHT22;3087;48.392;10.836;2023-05-07T06:05:05;15.60;99.90
6114;DHT22;3087;48.392;10.836;2023-05-07T06:07:31;15.80;99.90
6114;DHT22;3087;48.392;10.836;2023-05-07T06:09:56;16.00;99.90
6114;DHT22;3087;48.392;10.836;2023-05-07T06:12:22;15.70;99.90
6114;DHT22;3087;48.392;10.836;2023-05-07T06:14:47;15.80;99.90
6114;DHT22;3087;48.392;10.836;2023-05-07T06:17:13;15.90;99.90
6114;DHT22;3087;48.392;10.836;2023-05-07T06:19:39;15.90;99.90
6114;DHT22;3087;48.392;10.836;2023-05-07T06:22:04;15.80;99.90
6114;DHT22;3087;48.392;10.836;2023-05-07T06:24:30;16.00;99.90
6114;DHT22;3087;48.392;10.836;2023-05-07T06:26:55;16.00;99.90
6114;DHT22;3087;48.392;10.836;2023-05-07T06:29:21;15.90;99.90
6114;DHT22;3087;48.392;10.836;2023-05-07T06:31:47;16.00;99.90
6114;DHT22;3087;48.392;10.836;2023-05-07T06:34:13;16.20;99.90
6114;DHT22;3087;48.392;10.836;2023-05-07T06:36:40;16.20;99.90
6114;DHT22;3087;48.392;10.836;2023-05-07T06:39:06;16.20;99.90
6114;DHT22;3087;48.392;10.836;2023-05-07T06:41:32;16.30;99.90
6114;DHT22;3087;48.392;10.836;2023-05-07T06:43:58;16.50;99.90
6114;DHT22;3087;48.392;10.836;2023-05-07T06:46:23;16.80;99.90
6114;DHT22;3087;48.392;10.836;2023-05-07T06:48:49;16.90;99.90
6114;DHT22;3087;48.392;10.836;2023-05-07T06:51:14;16.80;99.90
6114;DHT22;3087;48.392;10.836;2023-05-07T06:53:40;16.80;99.90
6114;DHT22;3087;48.392;10.836;2023-05-07T06:56:06;16.60;99.90
6114;DHT22;3087;48.392;10.836;2023-05-07T06:58:31;16.70;99.90
6114;DHT22;3087;48.392;10.836;2023-05-07T07:00:57;16.80;99.90
6114;DHT22;3087;48.392;10.836;2023-05-07T07:03:23;16.90;99.90
6114;DHT22;3087;48.392;10.836;2023-05-07T07:05:52;17.10;99.90
6114;DHT22;3087;48.392;10.836;2023-05-07T07:08:18;17.20;99.90
6114;DHT22;3087;48.392;10.836;2023-05-07T07:10:43;17.30;99.90
6114;DHT22;3087;48.392;10.836;2023-05-07T07:13:09;17.30;99.90
6114;DHT22;3087;48.392;10.836;2023-05-07T07:15:34;17.40;99.90
6114;DHT22;3087;48.392;10.836;2023-05-07T07:18:00;17.50;99.90
6114;DHT22;3087;48.392;10.836;2023-05-07T07:20:26;17.70;99.90
6114;DHT22;3087;48.392;10.836;2023-05-07T07:22:51;17.80;99.90
6114;DHT22;3087;48.392;10.836;2023-05-07T07:25:17;17.90;99.90
6114;DHT22;3087;48.392;10.836;2023-05-07T07:27:42;18.00;99.90
6114;DHT22;3087;48.392;10.836;2023-05-07T07:30:08;18.00;99.90
6114;DHT22;3087;48.392;10.836;2023-05-07T07:32:34;18.10;99.90
6114;DHT22;3087;48.392;10.836;2023-05-07T07:35:00;18.40;99.90
6114;DHT22;3087;48.392;10.836;2023-05-07T07:37:27;18.40;99.90
6114;DHT22;3087;48.392;10.836;2023-05-07T07:39:53;18.40;99.90
6114;DHT22;3087;48.392;10.836;2023-05-07T07:42:19;18.50;99.90
6114;DHT22;3087;48.392;10.836;2023-05-07T07:44:44;18.60;99.90
6114;DHT22;3087;48.392;10.836;2023-05-07T07:47:10;18.60;99.90
6114;DHT22;3087;48.392;10.836;2023-05-07T07:49:36;18.80;99.90
6114;DHT22;3087;48.392;10.836;2023-05-07T07:52:01;19.00;99.90
6114;DHT22;3087;48.392;10.836;2023-05-07T07:54:27;19.00;99.90
6114;DHT22;3087;48.392;10.836;2023-05-07T07:56:54;19.30;99.90
6114;DHT22;3087;48.392;10.836;2023-05-07T07:59:20;19.30;99.90
6114;DHT22;3087;48.392;10.836;2023-05-07T08:01:45;19.30;99.90
6114;DHT22;3087;48.392;10.836;2023-05-07T08:04:13;19.50;99.90
6114;DHT22;3087;48.392;10.836;2023-05-07T08:06:39;19.60;99.90
6114;DHT22;3087;48.392;10.836;2023-05-07T08:09:05;19.70;99.90
6114;DHT22;3087;48.392;10.836;2023-05-07T08:11:30;19.70;99.90
6114;DHT22;3087;48.392;10.836;2023-05-07T08:13:56;19.80;99.90
6114;DHT22;3087;48.392;10.836;2023-05-07T08:16:22;20.00;99.90
6114;DHT22;3087;48.392;10.836;2023-05-07T08:18:47;20.20;99.90
6114;DHT22;3087;48.392;10.836;2023-05-07T08:21:13;20.40;99.90
6114;DHT22;3087;48.392;10.836;2023-05-07T08:23:38;20.50;99.90
6114;DHT22;3087;48.392;10.836;2023-05-07T08:26:04;20.50;99.90
6114;DHT22;3087;48.392;10.836;2023-05-07T08:28:30;20.50;99.90
6114;DHT22;3087;48.392;10.836;2023-05-07T08:30:55;20.40;99.90
6114;DHT22;3087;48.392;10.836;2023-05-07T08:33:26;20.50;99.90
6114;DHT22;3087;48.392;10.836;2023-05-07T08:35:52;20.50;99.90
6114;DHT22;3087;48.392;10.836;2023-05-07T08:38:17;20.60;99.90
6114;DHT22;3087;48.392;10.836;2023-05-07T08:40:43;20.80;99.90
6114;DHT22;3087;48.392;10.836;2023-05-07T08:43:12;20.90;99.90
6114;DHT22;3087;48.392;10.836;2023-05-07T08:45:39;21.10;99.90
6114;DHT22;3087;48.392;10.836;2023-05-07T08:48:09;21.30;99.90
6114;DHT22;3087;48.392;10.836;2023-05-07T08:50:36;21.20;99.90
6114;DHT22;3087;48.392;10.836;2023-05-07T08:53:03;21.20;99.90
6114;DHT22;3087;48.392;10.836;2023-05-07T08:55:30;21.30;99.90
6114;DHT22;3087;48.392;10.836;2023-05-07T08:57:56;21.50;99.90
6114;DHT22;3087;48.392;10.836;2023-05-07T09:00:22;21.50;99.90
6114;DHT22;3087;48.392;10.836;2023-05-07T09:02:47;21.70;99.90
6114;DHT22;3087;48.392;10.836;2023-05-07T09:05:13;21.90;99.90
6114;DHT22;3087;48.392;10.836;2023-05-07T09:07:39;21.90;99.90
6114;DHT22;3087;48.392;10.836;2023-05-07T09:10:05;22.00;99.90
6114;DHT22;3087;48.392;10.836;2023-05-07T09:12:31;22.00;99.90
6114;DHT22;3087;48.392;10.836;2023-05-07T09:14:58;22.10;99.90
6114;DHT22;3087;48.392;10.836;2023-05-07T09:17:24;22.10;99.90
6114;DHT22;3087;48.392;10.836;2023-05-07T09:19:50;22.30;99.90
6114;DHT22;3087;48.392;10.836;2023-05-07T09:22:16;22.30;99.90
6114;DHT22;3087;48.392;10.836;2023-05-07T09:24:50;22.40;99.90
6114;DHT22;3087;48.392;10.836;2023-05-07T09:27:16;22.60;99.90
6114;DHT22;3087;48.392;10.836;2023-05-07T09:29:43;22.60;99.90
6114;DHT22;3087;48.392;10.836;2023-05-07T09:32:09;22.70;99.90
6114;DHT22;3087;48.392;10.836;2023-05-07T09:34:35;22.80;99.90
6114;DHT22;3087;48.392;10.836;2023-05-07T09:37:02;23.10;99.90
6114;DHT22;3087;48.392;10.836;2023-05-07T09:39:42;23.00;99.90
6114;DHT22;3087;48.392;10.836;2023-05-07T09:42:09;22.90;99.90
6114;DHT22;3087;48.392;10.836;2023-05-07T09:44:35;22.90;99.90
6114;DHT22;3087;48.392;10.836;2023-05-07T09:47:02;22.90;99.90
6114;DHT22;3087;48.392;10.836;2023-05-07T09:49:30;23.40;99.90
6114;DHT22;3087;48.392;10.836;2023-05-07T09:52:00;24.00;99.90
6114;DHT22;3087;48.392;10.836;2023-05-07T09:54:26;24.50;99.90
6114;DHT22;3087;48.392;10.836;2023-05-07T09:56:55;25.00;99.90
6114;DHT22;3087;48.392;10.836;2023-05-07T09:59:21;25.80;99.90
6114;DHT22;3087;48.392;10.836;2023-05-07T10:01:48;26.00;99.90
6114;DHT22;3087;48.392;10.836;2023-05-07T10:04:14;26.60;99.90
6114;DHT22;3087;48.392;10.836;2023-05-07T10:06:40;27.00;99.90
6114;DHT22;3087;48.392;10.836;2023-05-07T10:09:07;27.70;99.90
6114;DHT22;3087;48.392;10.836;2023-05-07T10:11:34;28.10;99.90
6114;DHT22;3087;48.392;10.836;2023-05-07T10:14:00;28.50;99.90
6114;DHT22;3087;48.392;10.836;2023-05-07T10:16:28;28.80;99.90
6114;DHT22;3087;48.392;10.836;2023-05-07T10:18:56;29.20;99.80
6114;DHT22;3087;48.392;10.836;2023-05-07T10:21:23;29.40;99.90
6114;DHT22;3087;48.392;10.836;2023-05-07T10:23:51;29.00;98.80
6114;DHT22;3087;48.392;10.836;2023-05-07T10:26:18;29.20;99.30
6114;DHT22;3087;48.392;10.836;2023-05-07T10:28:49;29.70;98.60
6114;DHT22;3087;48.392;10.836;2023-05-07T10:34:00;28.80;97.00
6114;DHT22;3087;48.392;10.836;2023-05-07T10:36:27;28.30;96.90
6114;DHT22;3087;48.392;10.836;2023-05-07T10:38:53;27.70;96.80
6114;DHT22;3087;48.392;10.836;2023-05-07T10:41:20;27.40;97.60
6114;DHT22;3087;48.392;10.836;2023-05-07T10:43:46;27.00;98.00
6114;DHT22;3087;48.392;10.836;2023-05-07T10:46:22;26.70;97.00
6114;DHT22;3087;48.392;10.836;2023-05-07T10:51:26;26.20;96.90
6114;DHT22;3087;48.392;10.836;2023-05-07T10:56:39;26.40;96.80
6114;DHT22;3087;48.392;10.836;2023-05-07T11:02:04;26.60;97.50
6114;DHT22;3087;48.392;10.836;2023-05-07T11:04:33;27.30;97.50
6114;DHT22;3087;48.392;10.836;2023-05-07T11:09:57;28.50;97.40
6114;DHT22;3087;48.392;10.836;2023-05-07T11:15:06;27.70;96.10
6114;DHT22;3087;48.392;10.836;2023-05-07T11:17:32;27.50;96.60
6114;DHT22;3087;48.392;10.836;2023-05-07T11:20:00;27.10;95.80
6114;DHT22;3087;48.392;10.836;2023-05-07T11:25:06;28.00;96.20
6114;DHT22;3087;48.392;10.836;2023-05-07T11:27:32;28.20;94.90
6114;DHT22;3087;48.392;10.836;2023-05-07T11:29:58;28.50;94.60
6114;DHT22;3087;48.392;10.836;2023-05-07T11:32:28;28.60;94.90
6114;DHT22;3087;48.392;10.836;2023-05-07T11:34:55;28.50;95.00
6114;DHT22;3087;48.392;10.836;2023-05-07T11:37:22;28.10;95.20
6114;DHT22;3087;48.392;10.836;2023-05-07T11:39:48;28.30;94.50
6114;DHT22;3087;48.392;10.836;2023-05-07T11:42:29;28.50;94.70
6114;DHT22;3087;48.392;10.836;2023-05-07T11:44:55;29.00;95.00
6114;DHT22;3087;48.392;10.836;2023-05-07T11:47:21;29.60;95.10
6114;DHT22;3087;48.392;10.836;2023-05-07T11:49:48;29.90;95.10
6114;DHT22;3087;48.392;10.836;2023-05-07T11:52:15;29.30;94.00
6114;DHT22;3087;48.392;10.836;2023-05-07T11:54:41;29.40;94.30
6114;DHT22;3087;48.392;10.836;2023-05-07T11:57:06;29.30;94.00
6114;DHT22;3087;48.392;10.836;2023-05-07T11:59:42;28.90;93.50
6114;DHT22;3087;48.392;10.836;2023-05-07T12:02:17;28.60;93.70
6114;DHT22;3087;48.392;10.836;2023-05-07T12:04:43;28.90;94.10
6114;DHT22;3087;48.392;10.836;2023-05-07T12:07:12;28.50;93.60
6114;DHT22;3087;48.392;10.836;2023-05-07T12:09:42;28.20;93.60
6114;DHT22;3087;48.392;10.836;2023-05-07T12:12:09;28.30;93.90
6114;DHT22;3087;48.392;10.836;2023-05-07T12:14:39;28.40;94.30
6114;DHT22;3087;48.392;10.836;2023-05-07T12:17:05;28.80;93.60
6114;DHT22;3087;48.392;10.836;2023-05-07T12:19:31;29.00;93.90
6114;DHT22;3087;48.392;10.836;2023-05-07T12:21:58;29.10;93.40
6114;DHT22;3087;48.392;10.836;2023-05-07T12:27:09;29.70;93.10
6114;DHT22;3087;48.392;10.836;2023-05-07T12:29:35;29.60;93.10
6114;DHT22;3087;48.392;10.836;2023-05-07T12:32:00;29.30;93.40
6114;DHT22;3087;48.392;10.836;2023-05-07T12:34:26;29.10;92.90
6114;DHT22;3087;48.392;10.836;2023-05-07T12:36:51;29.00;93.50
6114;DHT22;3087;48.392;10.836;2023-05-07T12:39:18;29.20;93.50
6114;DHT22;3087;48.392;10.836;2023-05-07T12:41:57;29.50;91.80
6114;DHT22;3087;48.392;10.836;2023-05-07T12:44:30;29.70;92.30
6114;DHT22;3087;48.392;10.836;2023-05-07T12:46:56;29.80;92.50
6114;DHT22;3087;48.392;10.836;2023-05-07T12:49:23;30.20;92.10
6114;DHT22;3087;48.392;10.836;2023-05-07T12:51:49;30.00;92.30
6114;DHT22;3087;48.392;10.836;2023-05-07T12:54:34;29.80;92.70
6114;DHT22;3087;48.392;10.836;2023-05-07T12:57:09;29.80;92.40
6114;DHT22;3087;48.392;10.836;2023-05-07T12:59:39;29.90;91.60
6114;DHT22;3087;48.392;10.836;2023-05-07T13:02:05;30.10;91.90
6114;DHT22;3087;48.392;10.836;2023-05-07T13:04:32;29.90;91.80
6114;DHT22;3087;48.392;10.836;2023-05-07T13:06:59;29.50;92.40
6114;DHT22;3087;48.392;10.836;2023-05-07T13:09:25;29.10;92.60
6114;DHT22;3087;48.392;10.836;2023-05-07T13:11:50;28.50;92.70
6114;DHT22;3087;48.392;10.836;2023-05-07T13:14:16;28.30;92.70
6114;DHT22;3087;48.392;10.836;2023-05-07T13:16:42;28.20;92.70
6114;DHT22;3087;48.392;10.836;2023-05-07T13:19:07;28.20;92.70
6114;DHT22;3087;48.392;10.836;2023-05-07T13:21:33;28.00;92.80
6114;DHT22;3087;48.392;10.836;2023-05-07T13:23:58;27.70;92.80
6114;DHT22;3087;48.392;10.836;2023-05-07T13:26:26;27.80;93.10
6114;DHT22;3087;48.392;10.836;2023-05-07T13:28:55;27.80;93.20
6114;DHT22;3087;48.392;10.836;2023-05-07T13:31:20;27.60;93.00
6114;DHT22;3087;48.392;10.836;2023-05-07T13:33:46;27.60;93.70
6114;DHT22;3087;48.392;10.836;2023-05-07T13:36:12;27.60;93.00
6114;DHT22;3087;48.392;10.836;2023-05-07T13:38:38;27.60;93.40
6114;DHT22;3087;48.392;10.836;2023-05-07T13:41:04;27.80;93.50
6114;DHT22;3087;48.392;10.836;2023-05-07T13:43:29;28.10;93.70
6114;DHT22;3087;48.392;10.836;2023-05-07T13:45:55;28.30;93.20
6114;DHT22;3087;48.392;10.836;2023-05-07T13:48:20;28.00;93.20
6114;DHT22;3087;48.392;10.836;2023-05-07T13:50:46;28.00;92.70
6114;DHT22;3087;48.392;10.836;2023-05-07T13:53:12;27.90;93.50
6114;DHT22;3087;48.392;10.836;2023-05-07T13:55:37;27.80;93.00
6114;DHT22;3087;48.392;10.836;2023-05-07T13:58:03;27.90;93.70
6114;DHT22;3087;48.392;10.836;2023-05-07T14:00:29;27.70;93.20
6114;DHT22;3087;48.392;10.836;2023-05-07T14:02:56;27.40;93.30
6114;DHT22;3087;48.392;10.836;2023-05-07T14:05:22;27.40;93.60
6114;DHT22;3087;48.392;10.836;2023-05-07T14:07:52;27.20;93.70
6114;DHT22;3087;48.392;10.836;2023-05-07T14:10:18;27.10;93.80
6114;DHT22;3087;48.392;10.836;2023-05-07T14:12:45;27.00;94.00
6114;DHT22;3087;48.392;10.836;2023-05-07T14:15:10;27.10;93.50
6114;DHT22;3087;48.392;10.836;2023-05-07T14:17:37;27.30;93.50
6114;DHT22;3087;48.392;10.836;2023-05-07T14:20:03;27.00;93.60
6114;DHT22;3087;48.392;10.836;2023-05-07T14:22:28;26.80;93.60
6114;DHT22;3087;48.392;10.836;2023-05-07T14:24:54;26.80;93.80
6114;DHT22;3087;48.392;10.836;2023-05-07T14:27:19;26.60;93.50
6114;DHT22;3087;48.392;10.836;2023-05-07T14:29:45;26.50;92.80
6114;DHT22;3087;48.392;10.836;2023-05-07T14:32:18;26.50;93.20
6114;DHT22;3087;48.392;10.836;2023-05-07T14:34:44;26.50;93.40
6114;DHT22;3087;48.392;10.836;2023-05-07T14:37:10;26.70;94.10
6114;DHT22;3087;48.392;10.836;2023-05-07T14:39:36;26.70;93.80
6114;DHT22;3087;48.392;10.836;2023-05-07T14:42:02;26.60;94.00
6114;DHT22;3087;48.392;10.836;2023-05-07T14:44:28;25.60;94.60
6114;DHT22;3087;48.392;10.836;2023-05-07T14:46:54;26.70;94.30
6114;DHT22;3087;48.392;10.836;2023-05-07T14:49:23;26.30;93.50
6114;DHT22;3087;48.392;10.836;2023-05-07T14:51:49;25.90;93.50
6114;DHT22;3087;48.392;10.836;2023-05-07T14:54:15;25.50;94.10
6114;DHT22;3087;48.392;10.836;2023-05-07T14:56:41;25.50;94.20
6114;DHT22;3087;48.392;10.836;2023-05-07T14:59:07;25.50;94.40
6114;DHT22;3087;48.392;10.836;2023-05-07T15:01:37;25.30;94.70
6114;DHT22;3087;48.392;10.836;2023-05-07T15:04:06;25.30;94.80
6114;DHT22;3087;48.392;10.836;2023-05-07T15:06:32;25.20;95.10
6114;DHT22;3087;48.392;10.836;2023-05-07T15:08:57;25.30;95.00
6114;DHT22;3087;48.392;10.836;2023-05-07T15:11:23;25.20;95.00
6114;DHT22;3087;48.392;10.836;2023-05-07T15:13:50;24.90;94.40
6114;DHT22;3087;48.392;10.836;2023-05-07T15:16:15;25.00;94.70
6114;DHT22;3087;48.392;10.836;2023-05-07T15:18:42;24.80;95.00
6114;DHT22;3087;48.392;10.836;2023-05-07T15:21:08;24.90;94.80
6114;DHT22;3087;48.392;10.836;2023-05-07T15:23:34;24.80;95.20
6114;DHT22;3087;48.392;10.836;2023-05-07T15:25:59;24.90;95.10
6114;DHT22;3087;48.392;10.836;2023-05-07T15:28:26;24.80;94.80
6114;DHT22;3087;48.392;10.836;2023-05-07T15:30:54;24.30;94.90
6114;DHT22;3087;48.392;10.836;2023-05-07T15:33:20;24.30;95.10
6114;DHT22;3087;48.392;10.836;2023-05-07T15:35:45;24.20;95.10
6114;DHT22;3087;48.392;10.836;2023-05-07T15:38:11;24.30;94.80
6114;DHT22;3087;48.392;10.836;2023-05-07T15:40:38;24.30;95.20
6114;DHT22;3087;48.392;10.836;2023-05-07T15:43:07;24.30;95.40
6114;DHT22;3087;48.392;10.836;2023-05-07T15:45:41;24.20;95.20
6114;DHT22;3087;48.392;10.836;2023-05-07T15:48:08;24.20;95.20
6114;DHT22;3087;48.392;10.836;2023-05-07T15:50:33;24.10;94.90
6114;DHT22;3087;48.392;10.836;2023-05-07T15:52:59;23.90;95.00
6114;DHT22;3087;48.392;10.836;2023-05-07T15:55:25;23.90;95.40
6114;DHT22;3087;48.392;10.836;2023-05-07T15:57:51;23.80;95.50
6114;DHT22;3087;48.392;10.836;2023-05-07T16:00:16;23.60;95.30
6114;DHT22;3087;48.392;10.836;2023-05-07T16:02:43;23.60;95.40